createdAt,value
2017-10-13T00:01:19.582Z,4.00
2017-10-13T00:03:47.205Z,3.03
2017-10-13T00:06:14.762Z,3.87
2017-10-13T00:08:42.283Z,4.90
2017-10-13T00:11:10.693Z,4.03
2017-10-13T00:13:38.224Z,3.80
2017-10-13T00:16:05.859Z,4.00
2017-10-13T00:18:33.392Z,2.80
2017-10-13T00:21:00.947Z,3.63
2017-10-13T00:23:29.255Z,3.83
2017-10-13T00:25:56.779Z,3.90
2017-10-13T00:28:25.087Z,4.80
2017-10-13T00:30:52.611Z,3.90
2017-10-13T00:33:20.927Z,4.50
2017-10-13T00:35:48.452Z,4.20
2017-10-13T00:38:16.763Z,3.97
2017-10-13T00:40:44.291Z,4.30
2017-10-13T00:43:11.863Z,4.20
2017-10-13T00:45:39.394Z,4.07
2017-10-13T00:48:07.711Z,3.50
2017-10-13T00:50:35.236Z,3.77
2017-10-13T00:53:03.557Z,3.47
2017-10-13T00:55:31.107Z,5.07
2017-10-13T00:57:58.734Z,4.43
2017-10-13T01:00:27.050Z,3.90
2017-10-13T01:02:54.583Z,3.77
2017-10-13T01:05:22.151Z,3.77
2017-10-13T01:07:49.729Z,4.00
2017-10-13T01:10:17.271Z,4.40
2017-10-13T01:12:44.839Z,3.53
2017-10-13T01:15:12.382Z,3.90
2017-10-13T01:17:39.907Z,4.47
2017-10-13T01:20:08.231Z,4.27
2017-10-13T01:22:35.757Z,3.40
2017-10-13T01:25:04.056Z,4.30
2017-10-13T01:27:31.599Z,4.17
2017-10-13T01:29:59.891Z,4.60
2017-10-13T01:32:27.512Z,3.80
2017-10-13T01:34:55.038Z,4.30
2017-10-13T01:37:22.584Z,3.63
2017-10-13T01:39:50.106Z,4.43
2017-10-13T01:42:18.416Z,3.77
2017-10-13T01:44:45.947Z,4.30
2017-10-13T01:47:14.269Z,3.63
2017-10-13T01:49:41.791Z,5.07
2017-10-13T01:52:09.343Z,3.90
2017-10-13T01:54:36.873Z,3.90
2017-10-13T01:57:04.490Z,3.87
2017-10-13T01:59:32.037Z,3.70
2017-10-13T02:01:59.604Z,4.43
2017-10-13T02:04:27.151Z,4.10
2017-10-13T02:06:54.684Z,4.90
2017-10-13T02:09:22.235Z,3.83
2017-10-13T02:11:50.531Z,4.73
2017-10-13T02:14:18.107Z,3.80
2017-10-13T02:16:45.666Z,4.93
2017-10-13T02:19:13.207Z,4.30
2017-10-13T02:21:40.738Z,4.30
2017-10-13T02:24:09.067Z,3.53
2017-10-13T02:26:36.591Z,4.07
2017-10-13T02:29:04.122Z,4.07
2017-10-13T02:31:31.667Z,3.47
2017-10-13T02:33:59.954Z,3.90
2017-10-13T02:36:27.503Z,3.20
2017-10-13T02:38:55.809Z,5.30
2017-10-13T02:41:23.354Z,4.13
2017-10-13T02:43:50.879Z,5.30
2017-10-13T02:46:18.423Z,4.50
2017-10-13T02:48:45.948Z,3.97
2017-10-13T02:51:13.507Z,4.77
2017-10-13T02:53:41.030Z,5.03
2017-10-13T02:56:09.319Z,3.97
2017-10-13T02:58:36.866Z,4.00
2017-10-13T03:01:05.154Z,4.00
2017-10-13T03:03:32.703Z,4.40
2017-10-13T03:06:01.006Z,3.90
2017-10-13T03:08:28.555Z,3.80
2017-10-13T03:10:56.095Z,4.40
2017-10-13T03:13:24.392Z,5.33
2017-10-13T03:15:51.966Z,3.83
2017-10-13T03:18:19.491Z,3.20
2017-10-13T03:20:47.039Z,4.40
2017-10-13T03:23:14.568Z,4.43
2017-10-13T03:25:42.121Z,3.70
2017-10-13T03:28:09.651Z,5.63
2017-10-13T03:30:37.187Z,4.50
2017-10-13T03:33:04.732Z,4.40
2017-10-13T03:35:32.276Z,5.20
2017-10-13T03:37:59.818Z,5.10
2017-10-13T03:40:27.338Z,3.70
2017-10-13T03:42:55.723Z,3.40
2017-10-13T03:45:24.011Z,4.17
2017-10-13T03:47:51.590Z,3.90
2017-10-13T03:50:19.127Z,5.03
2017-10-13T03:52:46.656Z,5.90
2017-10-13T03:55:14.207Z,4.17
2017-10-13T03:57:42.499Z,3.90
2017-10-13T04:00:10.814Z,4.63
2017-10-13T04:02:38.355Z,5.00
2017-10-13T04:05:05.931Z,4.30
2017-10-13T04:07:33.480Z,5.00
2017-10-13T04:10:01.051Z,4.50
2017-10-13T04:12:28.597Z,4.00
2017-10-13T04:14:56.108Z,4.27
2017-10-13T04:17:23.659Z,4.53
2017-10-13T04:19:51.178Z,5.43
2017-10-13T04:22:18.748Z,3.80
2017-10-13T04:24:46.265Z,4.43
2017-10-13T04:27:14.543Z,4.50
2017-10-13T04:29:42.847Z,4.10
2017-10-13T04:32:10.365Z,6.47
2017-10-13T04:34:38.675Z,4.87
2017-10-13T04:37:06.238Z,4.67
2017-10-13T04:39:33.801Z,4.17
2017-10-13T04:42:01.310Z,4.50
2017-10-13T04:44:28.824Z,4.80
2017-10-13T04:46:56.381Z,3.80
2017-10-13T04:49:23.888Z,4.57
2017-10-13T04:51:51.417Z,4.20
2017-10-13T04:54:18.939Z,5.17
2017-10-13T04:56:47.231Z,5.47
2017-10-13T04:59:14.810Z,4.13
2017-10-13T05:01:42.333Z,4.27
2017-10-13T05:04:10.622Z,4.40
2017-10-13T05:06:38.165Z,4.27
2017-10-13T05:09:06.588Z,4.40
2017-10-13T05:11:34.096Z,3.73
2017-10-13T05:14:02.416Z,5.13
2017-10-13T05:16:29.939Z,3.87
2017-10-13T05:18:58.252Z,5.00
2017-10-13T05:21:25.783Z,5.37
2017-10-13T05:23:54.092Z,4.47
2017-10-13T05:26:21.600Z,4.27
2017-10-13T05:28:49.885Z,4.83
2017-10-13T05:31:18.176Z,4.23
2017-10-13T05:33:45.689Z,5.73
2017-10-13T05:36:13.236Z,3.60
2017-10-13T05:38:40.763Z,4.13
2017-10-13T05:41:08.319Z,4.73
2017-10-13T05:43:35.852Z,4.80
2017-10-13T05:46:04.142Z,5.27
2017-10-13T05:48:32.549Z,3.33
2017-10-13T05:51:00.109Z,5.10
2017-10-13T05:53:27.653Z,4.73
2017-10-13T05:55:55.227Z,4.33
2017-10-13T05:58:22.781Z,4.70
2017-10-13T06:00:50.284Z,4.57
2017-10-13T06:03:17.818Z,4.10
2017-10-13T06:05:45.339Z,4.83
2017-10-13T06:08:12.866Z,4.63
2017-10-13T06:10:40.408Z,4.93
2017-10-13T06:13:07.939Z,4.30
2017-10-13T06:15:35.494Z,5.50
2017-10-13T06:18:03.038Z,4.50
2017-10-13T06:20:30.561Z,4.63
2017-10-13T06:22:58.084Z,5.10
2017-10-13T06:25:25.598Z,5.07
2017-10-13T06:27:53.911Z,4.90
2017-10-13T06:30:21.439Z,4.80
2017-10-13T06:32:48.968Z,6.63
2017-10-13T06:35:17.267Z,5.60
2017-10-13T06:37:45.676Z,4.67
2017-10-13T06:40:13.219Z,5.57
2017-10-13T06:42:40.742Z,6.10
2017-10-13T06:45:08.283Z,5.37
2017-10-13T06:47:35.814Z,5.10
2017-10-13T06:50:03.373Z,5.27
2017-10-13T06:52:30.888Z,5.20
2017-10-13T06:54:59.182Z,5.73
2017-10-13T06:57:26.726Z,4.83
2017-10-13T06:59:55.021Z,5.10
2017-10-13T07:02:22.833Z,6.30
2017-10-13T07:04:50.358Z,5.53
2017-10-13T07:07:17.893Z,5.20
2017-10-13T07:09:45.396Z,4.87
2017-10-13T07:12:12.905Z,5.20
2017-10-13T07:14:40.441Z,5.60
2017-10-13T07:17:07.973Z,5.93
2017-10-13T07:19:36.269Z,5.93
2017-10-13T07:22:03.799Z,6.07
2017-10-13T07:24:32.100Z,6.03
2017-10-13T07:26:59.612Z,7.17
2017-10-13T07:29:28.624Z,6.50
2017-10-13T07:31:56.921Z,7.23
2017-10-13T07:34:24.442Z,7.93
2017-10-13T07:36:51.988Z,8.20
2017-10-13T07:39:19.507Z,7.47
2017-10-13T07:41:47.037Z,8.40
2017-10-13T07:44:15.326Z,8.50
2017-10-13T07:46:42.833Z,7.70
2017-10-13T07:49:10.370Z,8.53
2017-10-13T07:51:37.891Z,6.50
2017-10-13T07:54:06.189Z,7.60
2017-10-13T07:56:33.716Z,7.60
2017-10-13T07:59:02.039Z,8.17
2017-10-13T08:01:29.549Z,6.60
2017-10-13T08:03:57.053Z,7.20
2017-10-13T08:06:24.591Z,7.07
2017-10-13T08:08:52.124Z,6.80
2017-10-13T08:11:19.662Z,8.33
2017-10-13T08:13:47.173Z,8.40
2017-10-13T08:16:14.745Z,7.77
2017-10-13T08:18:42.257Z,8.80
2017-10-13T08:21:10.550Z,8.90
2017-10-13T08:23:38.864Z,8.97
2017-10-13T08:26:06.398Z,10.37
2017-10-13T08:28:33.959Z,9.37
2017-10-13T08:31:01.532Z,10.20
2017-10-13T08:33:29.079Z,9.53
2017-10-13T08:35:56.592Z,11.10
2017-10-13T08:38:24.869Z,11.20
2017-10-13T08:40:52.423Z,10.87
2017-10-13T08:43:19.951Z,10.20
2017-10-13T08:45:47.502Z,11.07
2017-10-13T08:48:15.004Z,12.80
2017-10-13T08:50:42.562Z,12.10
2017-10-13T08:53:11.599Z,12.00
2017-10-13T08:55:39.127Z,11.60
2017-10-13T08:58:06.837Z,11.43
2017-10-13T09:00:34.349Z,11.37
2017-10-13T09:03:01.889Z,10.80
2017-10-13T09:05:29.400Z,10.67
2017-10-13T09:07:56.945Z,10.00
2017-10-13T09:10:24.468Z,9.70
2017-10-13T09:12:51.969Z,9.97
2017-10-13T09:15:19.516Z,10.20
2017-10-13T09:17:47.042Z,8.73
2017-10-13T09:20:14.573Z,8.20
2017-10-13T09:22:47.814Z,8.90
2017-10-13T09:25:15.353Z,7.20
2017-10-13T09:27:42.933Z,6.97
2017-10-13T09:30:10.471Z,7.40
2017-10-13T09:32:37.996Z,6.77
2017-10-13T09:35:05.523Z,7.33
2017-10-13T09:37:33.058Z,8.00
2017-10-13T09:40:00.638Z,7.73
2017-10-13T09:42:28.192Z,8.07
2017-10-13T09:44:55.701Z,8.17
2017-10-13T09:47:23.229Z,8.60
2017-10-13T09:49:51.819Z,6.80
2017-10-13T09:52:19.355Z,6.73
2017-10-13T09:54:46.903Z,8.30
2017-10-13T09:57:14.427Z,7.70
2017-10-13T09:59:41.979Z,8.00
2017-10-13T10:02:09.480Z,6.90
2017-10-13T10:04:37.008Z,7.87
2017-10-13T10:07:04.538Z,6.70
2017-10-13T10:09:32.847Z,6.40
2017-10-13T10:12:00.379Z,6.03
2017-10-13T10:14:27.892Z,5.17
2017-10-13T10:16:55.431Z,5.23
2017-10-13T10:19:22.957Z,5.23
2017-10-13T10:21:50.488Z,6.50
2017-10-13T10:24:18.788Z,5.80
2017-10-13T10:26:46.333Z,5.67
2017-10-13T10:29:13.857Z,5.07
2017-10-13T10:31:41.384Z,6.50
2017-10-13T10:34:08.917Z,5.20
2017-10-13T10:36:37.216Z,5.30
2017-10-13T10:39:04.732Z,4.70
2017-10-13T10:41:32.267Z,5.13
2017-10-13T10:43:59.795Z,4.47
2017-10-13T10:46:27.322Z,3.60
2017-10-13T10:48:55.602Z,2.90
2017-10-13T10:51:23.268Z,4.00
2017-10-13T10:53:50.767Z,4.57
2017-10-13T10:56:19.792Z,4.33
2017-10-13T10:58:47.347Z,2.80
2017-10-13T11:01:14.866Z,3.73
2017-10-13T11:03:42.405Z,4.47
2017-10-13T11:06:09.923Z,4.03
2017-10-13T11:08:37.463Z,4.40
2017-10-13T11:11:04.977Z,4.57
2017-10-13T11:13:32.509Z,4.53
2017-10-13T11:16:00.031Z,4.60
2017-10-13T11:18:28.361Z,5.40
2017-10-13T11:20:55.879Z,4.50
2017-10-13T11:23:23.430Z,4.77
2017-10-13T11:25:50.927Z,4.03
2017-10-13T11:28:19.192Z,4.87
2017-10-13T11:30:46.731Z,4.03
2017-10-13T11:33:14.236Z,4.53
2017-10-13T11:35:41.771Z,3.73
2017-10-13T11:38:09.277Z,3.77
2017-10-13T11:40:36.831Z,4.80
2017-10-13T11:43:04.364Z,4.90
2017-10-13T11:45:31.880Z,4.07
2017-10-13T11:48:00.169Z,5.03
2017-10-13T11:50:27.686Z,5.33
2017-10-13T11:52:55.224Z,4.77
2017-10-13T11:55:23.497Z,5.97
2017-10-13T11:57:51.811Z,5.00
2017-10-13T12:00:19.326Z,5.43
2017-10-13T12:02:47.611Z,4.33
2017-10-13T12:05:15.911Z,4.87
2017-10-13T12:07:43.471Z,4.50
2017-10-13T12:10:11.002Z,4.50
2017-10-13T12:12:39.285Z,4.37
2017-10-13T12:15:07.581Z,3.80
2017-10-13T12:17:35.102Z,3.80
2017-10-13T12:20:02.628Z,3.00
2017-10-13T12:22:30.176Z,2.93
2017-10-13T12:24:57.702Z,2.67
2017-10-13T12:27:25.234Z,3.53
2017-10-13T12:29:52.755Z,3.40
2017-10-13T12:32:20.308Z,3.67
2017-10-13T12:34:47.827Z,3.30
2017-10-13T12:37:16.112Z,3.80
2017-10-13T12:39:43.656Z,3.83
2017-10-13T12:42:11.951Z,3.40
2017-10-13T12:44:39.480Z,3.90
2017-10-13T12:47:07.001Z,4.23
2017-10-13T12:49:35.316Z,3.63
2017-10-13T12:52:02.834Z,4.03
2017-10-13T12:54:31.128Z,4.40
2017-10-13T12:56:58.667Z,4.63
2017-10-13T12:59:26.941Z,4.30
2017-10-13T13:01:55.255Z,4.30
2017-10-13T13:04:22.765Z,3.57
2017-10-13T13:06:51.094Z,4.50
2017-10-13T13:09:19.490Z,4.23
2017-10-13T13:11:47.754Z,4.00
2017-10-13T13:14:16.044Z,4.10
2017-10-13T13:16:43.619Z,3.50
2017-10-13T13:19:11.159Z,3.10
2017-10-13T13:21:38.737Z,3.53
2017-10-13T13:24:06.266Z,3.97
2017-10-13T13:26:34.541Z,3.37
2017-10-13T13:29:02.854Z,3.70
2017-10-13T13:31:30.365Z,2.97
2017-10-13T13:33:58.685Z,3.33
2017-10-13T13:36:26.209Z,3.50
2017-10-13T13:38:54.498Z,3.40
2017-10-13T13:41:22.040Z,3.50
2017-10-13T13:43:50.328Z,3.77
2017-10-13T13:46:18.735Z,3.20
2017-10-13T13:48:46.319Z,3.63
2017-10-13T13:51:13.868Z,3.43
2017-10-13T13:53:41.386Z,3.70
2017-10-13T13:56:09.673Z,3.57
2017-10-13T13:58:37.215Z,3.60
2017-10-13T14:01:05.485Z,3.90
2017-10-13T14:03:33.797Z,3.57
2017-10-13T14:06:01.318Z,4.73
2017-10-13T14:08:29.631Z,4.83
2017-10-13T14:10:57.152Z,4.20
2017-10-13T14:13:25.439Z,4.33
2017-10-13T14:15:53.846Z,4.43
2017-10-13T14:18:21.566Z,4.13
2017-10-13T14:20:49.115Z,4.00
2017-10-13T14:23:16.626Z,4.60
2017-10-13T14:25:44.177Z,4.10
2017-10-13T14:28:11.683Z,3.70
2017-10-13T14:30:39.188Z,3.83
2017-10-13T14:33:06.717Z,4.40
2017-10-13T14:35:35.012Z,4.43
2017-10-13T14:38:02.556Z,4.03
2017-10-13T14:40:30.844Z,4.70
2017-10-13T14:42:59.154Z,4.20
2017-10-13T14:45:26.653Z,3.53
2017-10-13T14:47:54.932Z,4.00
2017-10-13T14:50:23.058Z,3.83
2017-10-13T14:52:51.919Z,3.37
2017-10-13T14:55:19.508Z,3.77
2017-10-13T14:57:47.027Z,4.43
2017-10-13T15:00:15.336Z,4.37
2017-10-13T15:02:42.862Z,4.87
2017-10-13T15:05:11.168Z,3.80
2017-10-13T15:07:38.677Z,4.73
2017-10-13T15:10:07.748Z,4.93
2017-10-13T15:12:35.257Z,4.63
2017-10-13T15:15:03.766Z,5.47
2017-10-13T15:17:31.311Z,5.10
2017-10-13T15:19:58.835Z,5.70
2017-10-13T15:22:26.384Z,6.10
2017-10-13T15:24:59.553Z,4.80
2017-10-13T15:27:32.831Z,6.00
2017-10-13T15:30:05.960Z,6.20
2017-10-13T15:32:39.106Z,6.50
2017-10-13T15:38:18.877Z,5.80
2017-10-13T15:40:52.150Z,6.07
2017-10-13T15:43:25.444Z,6.07
2017-10-13T15:45:58.593Z,6.27
2017-10-13T15:48:26.128Z,7.10
2017-10-13T15:50:59.391Z,6.93
2017-10-13T15:53:26.928Z,6.03
2017-10-13T15:55:55.233Z,5.70
2017-10-13T15:58:22.745Z,6.10
2017-10-13T16:00:50.270Z,6.07
2017-10-13T16:03:17.811Z,6.50
2017-10-13T16:05:45.340Z,6.33
2017-10-13T16:08:13.750Z,6.40
2017-10-13T16:10:41.252Z,6.93
2017-10-13T16:13:08.779Z,7.07
2017-10-13T16:15:36.332Z,5.87
2017-10-13T16:18:03.851Z,6.00
2017-10-13T16:20:32.145Z,5.27
2017-10-13T16:22:59.657Z,6.20
2017-10-13T16:25:27.188Z,6.57
2017-10-13T16:27:54.697Z,5.80
2017-10-13T16:30:22.974Z,6.93
2017-10-13T16:32:51.284Z,6.90
2017-10-13T16:35:18.789Z,9.50
2017-10-13T16:37:46.328Z,7.93
2017-10-13T16:40:13.828Z,8.17
2017-10-13T16:42:42.151Z,8.73
2017-10-13T16:45:09.673Z,9.27
2017-10-13T16:47:37.198Z,7.43
2017-10-13T16:50:04.717Z,7.00
2017-10-13T16:52:32.216Z,7.20
2017-10-13T16:55:00.528Z,6.70
2017-10-13T16:57:28.056Z,6.97
2017-10-13T16:59:55.603Z,6.20
2017-10-13T17:02:23.127Z,6.83
2017-10-13T17:04:50.651Z,7.60
2017-10-13T17:07:18.961Z,7.50
2017-10-13T17:09:46.525Z,8.10
2017-10-13T17:12:14.076Z,7.50
2017-10-13T17:14:41.585Z,6.47
2017-10-13T17:17:09.911Z,6.63
2017-10-13T17:19:37.432Z,7.43
2017-10-13T17:22:05.701Z,6.40
2017-10-13T17:24:33.239Z,6.53
2017-10-13T17:27:00.894Z,6.47
2017-10-13T17:29:28.425Z,6.97
2017-10-13T17:31:55.956Z,6.80
2017-10-13T17:34:24.360Z,6.30
2017-10-13T17:36:51.887Z,8.10
2017-10-13T17:39:20.199Z,8.53
2017-10-13T17:41:47.709Z,8.00
2017-10-13T17:44:15.255Z,7.73
2017-10-13T17:46:42.775Z,8.50
2017-10-13T17:49:10.326Z,10.20
2017-10-13T17:51:37.965Z,9.77
2017-10-13T17:54:05.535Z,8.57
2017-10-13T17:56:33.072Z,7.80
2017-10-13T17:59:01.387Z,8.40
2017-10-13T18:01:29.150Z,9.00
2017-10-13T18:03:56.675Z,8.57
2017-10-13T18:06:25.055Z,9.07
2017-10-13T18:08:53.396Z,8.67
2017-10-13T18:11:21.025Z,8.67
2017-10-13T18:13:48.581Z,9.10
2017-10-13T18:16:16.258Z,8.90
2017-10-13T18:18:43.807Z,9.57
2017-10-13T18:21:11.318Z,9.37
2017-10-13T18:23:38.867Z,10.83
2017-10-13T18:26:06.399Z,10.67
2017-10-13T18:28:34.145Z,10.37
2017-10-13T18:31:02.216Z,11.50
2017-10-13T18:33:29.796Z,11.30
2017-10-13T18:35:57.540Z,12.10
2017-10-13T18:38:26.146Z,12.23
2017-10-13T18:40:54.402Z,12.90
2017-10-13T18:43:22.060Z,12.93
2017-10-13T18:45:49.699Z,12.80
2017-10-13T18:48:18.927Z,13.47
2017-10-13T18:50:47.297Z,14.33
2017-10-13T18:53:15.676Z,13.17
2017-10-13T18:55:45.285Z,14.27
2017-10-13T18:58:14.452Z,12.60
2017-10-13T19:00:43.540Z,12.27
2017-10-13T19:03:11.957Z,14.20
2017-10-13T19:05:41.990Z,14.80
2017-10-13T19:10:49.533Z,12.63
2017-10-13T19:13:18.033Z,11.80
2017-10-13T19:15:47.143Z,11.60
2017-10-13T19:18:15.808Z,12.17
2017-10-13T19:20:43.611Z,14.40
2017-10-13T19:23:11.781Z,12.77
2017-10-13T19:25:40.879Z,13.33
2017-10-13T19:28:11.013Z,11.97
2017-10-13T19:30:39.172Z,11.77
2017-10-13T19:33:08.059Z,11.97
2017-10-13T19:35:37.667Z,12.47
2017-10-13T19:38:06.351Z,12.17
2017-10-13T19:40:35.227Z,12.27
2017-10-13T19:43:03.939Z,12.17
2017-10-13T19:45:31.797Z,12.17
2017-10-13T19:48:00.027Z,11.80
2017-10-13T19:50:28.955Z,12.43
2017-10-13T19:52:57.376Z,11.77
2017-10-13T19:55:25.413Z,12.30
2017-10-13T19:57:53.072Z,11.57
2017-10-13T20:00:22.130Z,11.83
2017-10-13T20:02:49.708Z,11.40
2017-10-13T20:05:17.319Z,11.27
2017-10-13T20:07:45.192Z,10.93
2017-10-13T20:10:13.742Z,11.37
2017-10-13T20:12:41.346Z,11.50
2017-10-13T20:15:08.880Z,10.83
2017-10-13T20:17:38.032Z,10.77
2017-10-13T20:20:05.671Z,10.20
2017-10-13T20:22:33.991Z,10.17
2017-10-13T20:25:01.756Z,10.37
2017-10-13T20:27:29.416Z,10.90
2017-10-13T20:29:57.080Z,11.77
2017-10-13T20:32:24.598Z,11.80
2017-10-13T20:34:52.931Z,10.93
2017-10-13T20:37:20.472Z,10.77
2017-10-13T20:39:48.030Z,10.10
2017-10-13T20:42:15.591Z,10.70
2017-10-13T20:44:43.144Z,9.77
2017-10-13T20:47:10.657Z,9.83
2017-10-13T20:49:38.177Z,10.53
2017-10-13T20:52:05.721Z,9.60
2017-10-13T20:54:33.489Z,8.63
2017-10-13T20:57:01.035Z,8.73
2017-10-13T20:59:28.608Z,9.07
2017-10-13T21:01:56.144Z,8.53
2017-10-13T21:04:23.663Z,8.00
2017-10-13T21:06:51.950Z,8.60
2017-10-13T21:09:20.298Z,9.20
2017-10-13T21:11:47.832Z,8.50
2017-10-13T21:14:15.370Z,8.47
2017-10-13T21:16:42.905Z,7.90
2017-10-13T21:19:11.231Z,8.63
2017-10-13T21:21:38.742Z,8.00
2017-10-13T21:24:06.271Z,8.30
2017-10-13T21:26:33.805Z,8.17
2017-10-13T21:29:01.317Z,8.43
2017-10-13T21:31:28.856Z,7.10
2017-10-13T21:33:56.383Z,6.93
2017-10-13T21:36:23.939Z,8.20
2017-10-13T21:38:51.457Z,7.33
2017-10-13T21:41:19.880Z,7.20
2017-10-13T21:43:47.389Z,8.20
2017-10-13T21:46:14.927Z,7.63
2017-10-13T21:48:42.432Z,7.40
2017-10-13T21:51:09.992Z,7.80
2017-10-13T21:53:37.535Z,7.23
2017-10-13T21:56:05.812Z,8.30
2017-10-13T21:58:34.096Z,7.20
2017-10-13T22:01:02.401Z,6.70
2017-10-13T22:03:29.939Z,7.50
2017-10-13T22:05:57.457Z,7.20
2017-10-13T22:08:25.006Z,6.80
2017-10-13T22:10:52.527Z,6.60
2017-10-13T22:13:20.033Z,6.70
2017-10-13T22:15:47.557Z,6.50
2017-10-13T22:18:15.088Z,7.00
2017-10-13T22:20:42.615Z,6.77
2017-10-13T22:23:10.136Z,6.80
2017-10-13T22:25:37.656Z,6.80
2017-10-13T22:28:05.940Z,6.40
2017-10-13T22:30:33.491Z,7.60
2017-10-13T22:33:01.763Z,7.60
2017-10-13T22:35:30.032Z,7.00
2017-10-13T22:37:58.316Z,7.40
2017-10-13T22:40:26.599Z,7.77
2017-10-13T22:42:54.151Z,8.63
2017-10-13T22:45:22.429Z,7.80
2017-10-13T22:47:50.721Z,8.40
2017-10-13T22:50:18.238Z,8.43
2017-10-13T22:52:46.509Z,9.17
2017-10-13T22:55:14.827Z,9.67
2017-10-13T22:57:42.349Z,9.20
2017-10-13T23:00:10.660Z,9.57
2017-10-13T23:02:38.189Z,10.70
2017-10-13T23:05:05.744Z,11.33
2017-10-13T23:07:34.034Z,10.83
2017-10-13T23:10:08.378Z,9.80
2017-10-13T23:12:35.948Z,11.10
2017-10-13T23:15:03.462Z,10.70
2017-10-13T23:17:30.992Z,12.33
2017-10-13T23:19:58.527Z,10.40
2017-10-13T23:22:26.074Z,10.63
2017-10-13T23:24:53.611Z,10.80
2017-10-13T23:27:21.923Z,10.83
2017-10-13T23:29:49.429Z,9.13
2017-10-13T23:32:16.958Z,10.67
2017-10-13T23:34:44.493Z,11.07
2017-10-13T23:37:12.025Z,10.03
2017-10-13T23:39:40.292Z,9.27
2017-10-13T23:42:08.605Z,10.37
2017-10-13T23:44:36.116Z,10.73
2017-10-13T23:47:03.655Z,10.90
2017-10-13T23:49:31.185Z,10.70
2017-10-13T23:51:58.706Z,11.33
2017-10-13T23:54:27.009Z,10.20
2017-10-13T23:56:54.521Z,10.37
2017-10-13T23:59:22.074Z,10.17
